createdAt,value
2018-06-01T01:42:04.534Z,62.40
2018-06-01T01:43:04.661Z,59.20
2018-06-01T01:44:04.523Z,66.10
2018-06-01T01:45:04.551Z,62.00
2018-06-01T01:46:04.518Z,61.70
2018-06-01T01:47:06.298Z,67.50
2018-06-01T01:48:53.488Z,54.80
2018-06-01T01:49:53.367Z,56.90
2018-06-01T01:50:53.360Z,55.40
2018-06-01T01:51:53.399Z,55.70
2018-06-01T01:52:53.558Z,57.10
2018-06-01T01:53:53.422Z,56.90
2018-06-01T01:54:53.464Z,56.70
2018-06-01T01:55:53.431Z,56.60
2018-06-01T01:56:53.466Z,54.90
2018-06-01T01:57:53.470Z,58.30
2018-06-01T01:58:53.481Z,61.20
2018-06-01T01:59:53.521Z,56.90
2018-06-01T02:01:48.356Z,61.10
2018-06-01T02:02:47.860Z,64.00
2018-06-01T02:03:50.144Z,58.00
2018-06-01T02:04:48.747Z,56.70
2018-06-01T02:05:58.620Z,59.80
2018-06-01T02:11:30.366Z,66.40
2018-06-01T02:12:27.655Z,69.80
2018-06-01T02:13:27.887Z,68.00
2018-06-01T02:14:27.646Z,64.90
2018-06-01T02:15:32.293Z,63.30
2018-06-01T02:16:27.731Z,69.30
2018-06-01T02:23:38.082Z,68.60
2018-06-01T02:24:36.293Z,66.20
2018-06-01T02:25:36.215Z,66.70
2018-06-01T02:26:36.169Z,61.40
2018-06-01T02:27:42.563Z,65.80
2018-06-01T02:28:36.153Z,59.70
2018-06-01T02:32:28.090Z,74.30
2018-06-01T02:33:28.174Z,67.30
2018-06-01T02:34:28.425Z,67.00
2018-06-01T02:35:32.789Z,77.60
2018-06-01T02:48:03.121Z,70.40
2018-06-01T02:49:00.766Z,67.30
2018-06-01T02:50:00.970Z,68.90
2018-06-01T02:51:01.155Z,70.30
2018-06-01T02:52:00.819Z,65.80
2018-06-01T03:11:21.886Z,64.10
2018-06-01T03:12:20.664Z,60.20
2018-06-01T03:13:21.757Z,61.70
2018-06-01T03:14:20.789Z,77.20
2018-06-01T03:15:20.756Z,68.00
2018-06-01T03:16:20.708Z,69.80
2018-06-01T03:20:17.724Z,94.10
2018-06-01T03:21:17.127Z,85.00
2018-06-01T03:22:17.102Z,97.10
2018-06-01T03:23:21.836Z,92.90
2018-06-01T03:24:17.068Z,94.00
2018-06-01T03:25:05.989Z,98.60
2018-06-01T03:26:03.953Z,93.70
2018-06-01T03:27:04.023Z,86.60
2018-06-01T03:28:03.994Z,82.20
2018-06-01T03:29:05.316Z,79.10
2018-06-01T03:30:03.992Z,89.70
2018-06-01T03:31:04.006Z,90.50
2018-06-01T03:32:04.003Z,83.60
2018-06-01T03:33:04.053Z,85.00
2018-06-01T03:40:41.156Z,83.90
2018-06-01T03:41:40.969Z,75.80
2018-06-01T03:42:41.053Z,82.40
2018-06-01T03:43:41.014Z,83.60
2018-06-01T03:44:41.054Z,81.80
2018-06-01T03:45:41.039Z,79.80
2018-06-01T03:46:41.065Z,90.60
2018-06-01T03:47:41.069Z,94.90
2018-06-01T03:48:41.088Z,87.60
2018-06-01T03:49:41.085Z,88.30
2018-06-01T03:51:28.470Z,88.00
2018-06-01T03:52:28.661Z,84.60
2018-06-01T03:53:28.521Z,88.40
2018-06-01T03:54:28.541Z,85.80
2018-06-01T03:55:28.502Z,82.70
2018-06-01T03:56:28.541Z,87.60
2018-06-01T03:57:28.544Z,87.70
2018-06-01T03:58:28.549Z,88.80
2018-06-01T03:59:28.561Z,88.80
2018-06-01T04:00:28.663Z,89.20
2018-06-01T04:01:28.569Z,84.60
2018-06-01T04:02:28.671Z,90.50
2018-06-01T04:03:28.609Z,84.70
2018-06-01T04:05:16.083Z,76.80
2018-06-01T04:06:16.101Z,78.60
2018-06-01T04:07:16.086Z,84.00
2018-06-01T04:08:16.133Z,75.00
2018-06-01T04:09:16.100Z,74.60
2018-06-01T04:10:16.198Z,76.00
2018-06-01T04:11:16.122Z,77.30
2018-06-01T04:12:16.154Z,83.80
2018-06-01T04:14:03.424Z,78.40
2018-06-01T04:15:03.309Z,75.40
2018-06-01T04:16:03.324Z,75.70
2018-06-01T04:17:03.387Z,74.20
2018-06-01T04:18:03.340Z,71.50
2018-06-01T04:19:04.468Z,70.90
2018-06-01T04:20:03.427Z,71.00
2018-06-01T04:20:50.412Z,70.30
2018-06-01T04:21:50.254Z,65.40
2018-06-01T04:22:50.322Z,64.60
2018-06-01T04:23:50.277Z,60.90
2018-06-01T04:24:50.319Z,66.40
2018-06-01T04:25:50.330Z,64.70
2018-06-01T04:26:50.343Z,61.50
2018-06-01T04:27:50.381Z,60.10
2018-06-01T04:28:50.459Z,56.60
2018-06-01T04:29:50.371Z,60.20
2018-06-01T04:31:39.682Z,64.60
2018-06-01T04:32:39.745Z,58.90
2018-06-01T04:33:39.683Z,59.30
2018-06-01T04:34:40.802Z,61.00
2018-06-01T04:35:39.709Z,58.40
2018-06-01T04:36:46.644Z,59.70
2018-06-01T04:37:39.748Z,57.40
2018-06-01T04:38:39.795Z,60.30
2018-06-01T04:39:39.769Z,62.40
2018-06-01T04:41:27.150Z,57.90
2018-06-01T04:42:27.222Z,62.60
2018-06-01T04:43:27.143Z,55.30
2018-06-01T04:44:27.212Z,59.80
2018-06-01T04:45:27.170Z,59.30
2018-06-01T04:46:28.258Z,56.40
2018-06-01T04:47:27.251Z,54.50
2018-06-01T04:48:29.348Z,56.80
2018-06-01T04:50:14.497Z,53.00
2018-06-01T04:51:14.393Z,58.00
2018-06-01T04:52:14.467Z,54.80
2018-06-01T04:53:14.426Z,60.10
2018-06-01T04:54:14.500Z,54.60
2018-06-01T04:55:14.514Z,55.70
2018-06-01T04:56:20.329Z,51.40
2018-06-01T04:57:14.494Z,55.40
2018-06-01T04:59:43.672Z,54.10
2018-06-01T05:00:43.552Z,52.70
2018-06-01T05:01:43.654Z,52.00
2018-06-01T05:02:43.589Z,52.80
2018-06-01T05:03:44.708Z,49.70
2018-06-01T05:04:43.645Z,52.90
2018-06-01T05:05:43.634Z,50.50
2018-06-01T05:06:43.658Z,51.80
2018-06-01T05:07:43.788Z,54.60
2018-06-01T05:08:43.699Z,54.20
2018-06-01T05:09:43.762Z,47.10
2018-06-01T05:10:43.681Z,48.50
2018-06-01T05:11:43.781Z,50.50
2018-06-01T05:12:43.726Z,49.00
2018-06-01T05:13:44.822Z,51.20
2018-06-01T05:14:59.176Z,56.80
2018-06-01T05:15:59.024Z,52.20
2018-06-01T05:17:00.100Z,49.40
2018-06-01T05:17:59.045Z,49.00
2018-06-01T05:19:00.096Z,50.10
2018-06-01T05:19:59.076Z,50.00
2018-06-01T05:20:59.124Z,55.20
2018-06-01T05:21:59.088Z,52.00
2018-06-01T05:22:59.147Z,51.20
2018-06-01T05:23:59.099Z,53.30
2018-06-01T05:24:59.217Z,53.00
2018-06-01T05:25:59.153Z,51.50
2018-06-01T05:27:47.459Z,56.30
2018-06-01T05:28:49.433Z,55.20
2018-06-01T05:29:47.339Z,52.10
2018-06-01T05:30:52.129Z,56.20
2018-06-01T05:31:47.345Z,52.40
2018-06-01T05:32:51.997Z,55.90
2018-06-01T05:33:47.403Z,56.10
2018-06-01T05:34:47.416Z,55.80
2018-06-01T05:36:34.837Z,57.90
2018-06-01T05:37:34.574Z,58.20
2018-06-01T05:38:34.728Z,57.90
2018-06-01T05:39:34.635Z,54.30
2018-06-01T05:40:34.628Z,54.70
2018-06-01T05:41:34.646Z,56.90
2018-06-01T05:42:34.659Z,57.70
2018-06-01T05:43:34.657Z,53.70
2018-06-01T05:44:34.815Z,55.70
2018-06-01T05:45:34.774Z,56.60
2018-06-01T05:46:34.739Z,56.50
2018-06-01T05:47:34.791Z,59.20
2018-06-01T05:48:34.714Z,60.40
2018-06-01T05:49:34.804Z,58.70
2018-06-01T05:51:22.177Z,56.30
2018-06-01T05:52:22.073Z,58.50
2018-06-01T05:53:22.100Z,53.60
2018-06-01T05:54:22.181Z,52.10
2018-06-01T05:55:22.187Z,52.50
2018-06-01T05:56:22.148Z,51.90
2018-06-01T05:57:22.131Z,51.20
2018-06-01T05:58:22.165Z,51.90
2018-06-01T05:59:22.156Z,49.80
2018-06-01T06:00:22.293Z,49.20
2018-06-01T06:01:22.183Z,55.10
2018-06-01T06:02:22.295Z,51.10
2018-06-01T06:03:22.227Z,54.10
2018-06-01T06:04:22.302Z,49.40
2018-06-01T06:05:22.252Z,52.40
2018-06-01T06:06:22.314Z,49.40
2018-06-01T06:07:22.285Z,49.00
2018-06-01T06:08:22.328Z,49.00
2018-06-01T06:09:22.299Z,48.40
2018-06-01T06:11:10.148Z,51.80
2018-06-01T06:12:11.194Z,51.50
2018-06-01T06:13:10.142Z,49.60
2018-06-01T06:14:10.194Z,49.00
2018-06-01T06:15:10.162Z,46.50
2018-06-01T06:16:10.244Z,47.80
2018-06-01T06:17:10.184Z,47.90
2018-06-01T06:18:10.203Z,45.20
2018-06-01T06:19:10.202Z,46.80
2018-06-01T06:20:10.339Z,46.70
2018-06-01T06:21:57.838Z,45.00
2018-06-01T06:22:57.790Z,45.80
2018-06-01T06:23:57.825Z,42.50
2018-06-01T06:24:57.886Z,41.30
2018-06-01T06:25:57.832Z,48.50
2018-06-01T06:26:57.881Z,42.70
2018-06-01T06:27:57.859Z,47.50
2018-06-01T06:28:57.930Z,52.60
2018-06-01T06:29:57.890Z,44.30
2018-06-01T06:30:58.006Z,47.70
2018-06-01T06:31:57.924Z,44.70
2018-06-01T06:32:58.018Z,45.10
2018-06-01T06:34:49.603Z,49.70
2018-06-01T06:35:49.638Z,44.70
2018-06-01T06:36:49.623Z,45.80
2018-06-01T06:37:49.651Z,44.60
2018-06-01T06:38:49.621Z,45.80
2018-06-01T06:39:49.766Z,45.00
2018-06-01T06:40:49.655Z,47.80
2018-06-01T06:41:49.881Z,42.80
2018-06-01T06:42:49.695Z,42.70
2018-06-01T06:43:49.687Z,43.00
2018-06-01T06:44:49.698Z,45.40
2018-06-01T06:45:49.705Z,48.10
2018-06-01T06:46:49.737Z,47.10
2018-06-01T06:47:50.038Z,47.30
2018-06-01T06:48:49.826Z,46.30
2018-06-01T06:49:49.774Z,44.40
2018-06-01T06:50:49.775Z,46.20
2018-06-01T06:51:49.818Z,49.60
2018-06-01T06:52:49.815Z,48.50
2018-06-01T06:53:49.834Z,46.70
2018-06-01T06:54:49.852Z,50.80
2018-06-01T06:55:49.848Z,43.60
2018-06-01T06:56:49.877Z,44.30
2018-06-01T06:57:49.879Z,49.40
2018-06-01T06:58:49.899Z,51.80
2018-06-01T06:59:49.906Z,45.20
2018-06-01T07:00:49.940Z,44.60
2018-06-01T07:01:49.955Z,45.30
2018-06-01T07:02:49.948Z,45.70
2018-06-01T07:03:49.972Z,44.80
2018-06-01T07:04:50.050Z,46.20
2018-06-01T07:05:50.034Z,43.20
2018-06-01T07:06:37.446Z,44.00
2018-06-01T07:07:37.323Z,45.30
2018-06-01T07:08:37.375Z,42.90
2018-06-01T07:09:37.347Z,43.00
2018-06-01T07:10:37.377Z,44.60
2018-06-01T07:11:37.405Z,43.50
2018-06-01T07:12:37.428Z,46.50
2018-06-01T07:13:37.393Z,49.40
2018-06-01T07:14:37.400Z,54.20
2018-06-01T07:15:37.422Z,47.50
2018-06-01T07:16:37.473Z,50.30
2018-06-01T07:17:37.539Z,48.80
2018-06-01T07:18:37.472Z,49.60
2018-06-01T07:19:37.488Z,47.30
2018-06-01T07:20:37.503Z,47.40
2018-06-01T07:22:24.334Z,51.00
2018-06-01T07:23:24.387Z,50.50
2018-06-01T07:24:24.308Z,51.80
2018-06-01T07:25:24.370Z,50.10
2018-06-01T07:26:24.335Z,48.70
2018-06-01T07:27:24.439Z,50.50
2018-06-01T07:28:24.369Z,44.90
2018-06-01T07:29:24.434Z,49.40
2018-06-01T07:30:24.392Z,47.70
2018-06-01T07:31:25.501Z,48.60
2018-06-01T07:32:24.412Z,52.80
2018-06-01T07:33:25.522Z,50.70
2018-06-01T07:34:24.460Z,50.70
2018-06-01T07:35:24.580Z,50.40
2018-06-01T07:36:24.506Z,53.20
2018-06-01T07:37:24.568Z,52.00
2018-06-01T07:38:24.524Z,51.30
2018-06-01T07:39:24.511Z,49.30
2018-06-01T07:40:24.530Z,47.60
2018-06-01T07:41:24.537Z,47.80
2018-06-01T07:42:24.594Z,50.60
2018-06-01T07:43:24.590Z,53.20
2018-06-01T07:45:21.433Z,49.80
2018-06-01T07:46:21.443Z,49.60
2018-06-01T07:47:21.470Z,53.40
2018-06-01T07:48:21.429Z,49.90
2018-06-01T07:49:21.474Z,45.20
2018-06-01T07:50:21.457Z,49.90
2018-06-01T07:51:21.492Z,49.50
2018-06-01T07:52:21.470Z,50.40
2018-06-01T07:53:21.509Z,48.70
2018-06-01T07:54:21.621Z,48.30
2018-06-01T07:55:21.543Z,53.50
2018-06-01T07:56:21.546Z,51.30
2018-06-01T07:57:21.563Z,52.50
2018-06-01T07:58:21.557Z,50.60
2018-06-01T07:59:21.588Z,49.70
2018-06-01T08:00:21.592Z,50.10
2018-06-01T08:01:21.606Z,49.80
2018-06-01T08:03:14.076Z,50.20
2018-06-01T08:04:14.153Z,50.70
2018-06-01T08:05:14.085Z,49.50
2018-06-01T08:06:14.139Z,48.90
2018-06-01T08:07:14.106Z,54.90
2018-06-01T08:08:14.091Z,49.80
2018-06-01T08:09:14.214Z,46.90
2018-06-01T08:11:01.011Z,51.30
2018-06-01T08:12:01.066Z,51.10
2018-06-01T08:13:01.001Z,48.30
2018-06-01T08:14:01.074Z,46.80
2018-06-01T08:15:01.049Z,52.60
2018-06-01T08:16:01.103Z,49.50
2018-06-01T08:17:01.052Z,47.90
2018-06-01T08:18:25.911Z,55.80
2018-06-01T08:19:01.093Z,46.90
2018-06-01T08:20:01.112Z,52.60
2018-06-01T08:21:01.246Z,57.20
2018-06-01T08:22:47.895Z,58.10
2018-06-01T08:23:47.876Z,61.50
2018-06-01T08:24:47.978Z,57.90
2018-06-01T08:25:48.005Z,54.50
2018-06-01T08:26:47.951Z,57.00
2018-06-01T08:27:47.916Z,55.30
2018-06-01T08:29:34.832Z,56.00
2018-06-01T08:30:34.830Z,52.20
2018-06-01T08:31:34.909Z,50.90
2018-06-01T08:32:34.896Z,54.10
2018-06-01T08:33:34.850Z,52.20
2018-06-01T08:34:35.100Z,50.10
2018-06-01T08:35:34.877Z,52.80
2018-06-01T08:36:34.892Z,50.90
2018-06-01T08:37:34.899Z,50.50
2018-06-01T08:38:34.935Z,53.40
2018-06-01T08:40:21.768Z,57.30
2018-06-01T08:41:21.736Z,52.00
2018-06-01T08:42:21.712Z,52.30
2018-06-01T08:43:21.759Z,53.20
2018-06-01T08:44:21.988Z,49.40
2018-06-01T08:45:21.721Z,50.60
2018-06-01T08:46:21.782Z,49.00
2018-06-01T08:47:21.746Z,53.90
2018-06-01T08:48:21.780Z,53.20
2018-06-01T08:53:55.801Z,65.60
2018-06-01T08:54:55.743Z,59.40
2018-06-01T08:55:56.175Z,56.80
2018-06-01T08:56:56.574Z,61.70
2018-06-01T08:57:55.683Z,60.50
2018-06-01T08:58:55.610Z,56.30
2018-06-01T08:59:55.428Z,61.60
2018-06-01T09:02:00.692Z,67.10
2018-06-01T09:03:00.237Z,63.20
2018-06-01T09:04:00.347Z,63.50
2018-06-01T09:05:02.740Z,67.40
2018-06-01T09:06:00.127Z,65.20
2018-06-01T09:07:01.252Z,71.70
2018-06-01T09:08:47.257Z,76.00
2018-06-01T09:09:47.196Z,72.60
2018-06-01T09:10:47.160Z,71.70
2018-06-01T09:11:47.199Z,70.70
2018-06-01T09:12:47.161Z,76.50
2018-06-01T09:13:47.151Z,86.60
2018-06-01T09:14:47.220Z,81.40
2018-06-01T09:15:47.210Z,88.10
2018-06-01T09:16:47.278Z,91.80
2018-06-01T09:18:38.653Z,89.80
2018-06-01T09:19:34.321Z,100.50
2018-06-01T09:21:29.576Z,111.10
2018-06-01T09:22:29.490Z,111.30
2018-06-01T09:23:29.571Z,108.30
2018-06-01T09:24:29.576Z,113.70
2018-06-01T09:25:29.686Z,118.90
2018-06-01T09:26:29.575Z,112.90
2018-06-01T09:28:23.104Z,131.90
2018-06-01T09:29:21.492Z,139.30
2018-06-01T09:31:17.830Z,125.80
2018-06-01T09:32:16.925Z,132.80
2018-06-01T09:33:16.857Z,131.70
2018-06-01T09:34:18.239Z,131.20
2018-06-01T09:35:16.782Z,152.50
2018-06-01T09:37:05.578Z,172.20
2018-06-01T09:38:03.826Z,186.20
2018-06-01T09:39:04.115Z,161.10
2018-06-01T09:40:03.755Z,182.40
2018-06-01T09:41:03.711Z,172.30
2018-06-01T09:42:52.068Z,131.70
2018-06-01T09:43:52.848Z,136.20
2018-06-01T09:45:49.410Z,131.50
2018-06-01T09:46:46.543Z,149.60
2018-06-01T09:47:47.192Z,136.20
2018-06-01T09:48:46.359Z,186.10
2018-06-01T09:50:38.305Z,132.90
2018-06-01T09:51:39.267Z,134.20
2018-06-01T09:52:38.199Z,135.40
2018-06-01T09:53:59.293Z,166.20
2018-06-01T09:54:38.151Z,160.70
2018-06-01T09:55:40.210Z,149.70
2018-06-01T09:56:38.124Z,137.20
2018-06-01T09:57:38.194Z,192.70
2018-06-01T09:58:38.180Z,170.50
2018-06-01T10:04:45.409Z,159.40
2018-06-01T10:05:42.974Z,115.30
2018-06-01T10:07:50.524Z,96.20
2018-06-01T10:08:43.122Z,114.70
2018-06-01T10:09:42.862Z,125.50
2018-06-01T10:12:19.969Z,117.90
2018-06-01T10:13:19.995Z,112.60
2018-06-01T10:18:05.598Z,112.10
2018-06-01T10:19:08.682Z,118.50
2018-06-01T10:20:04.971Z,101.20
2018-06-01T10:21:09.729Z,115.80
2018-06-01T10:22:01.559Z,100.70
2018-06-01T10:23:00.353Z,92.00
2018-06-01T10:23:56.885Z,87.80
2018-06-01T10:25:07.682Z,81.60
2018-06-01T10:26:50.417Z,79.30
2018-06-01T10:27:52.053Z,80.50
2018-06-01T10:28:50.621Z,86.90
2018-06-01T10:29:51.644Z,84.30
2018-06-01T10:30:50.279Z,83.90
2018-06-01T10:32:39.449Z,60.80
2018-06-01T10:33:41.529Z,52.60
2018-06-01T10:34:39.250Z,59.80
2018-06-01T10:35:39.268Z,51.50
2018-06-01T10:37:29.428Z,64.90
2018-06-01T10:38:29.281Z,61.50
2018-06-01T10:39:29.180Z,54.00
2018-06-01T10:40:29.214Z,60.00
2018-06-01T10:41:29.431Z,58.40
2018-06-01T10:42:30.235Z,56.50
2018-06-01T10:43:29.216Z,61.20
2018-06-01T10:52:01.030Z,35.70
2018-06-01T10:53:00.277Z,31.80
2018-06-01T10:53:59.108Z,34.20
2018-06-01T10:54:59.056Z,32.80
2018-06-01T10:56:02.528Z,33.50
2018-06-01T10:57:49.312Z,34.20
2018-06-01T10:58:46.053Z,32.80
2018-06-01T10:59:45.959Z,31.10
2018-06-01T11:00:48.019Z,30.60
2018-06-01T11:01:45.964Z,28.60
2018-06-01T11:02:57.730Z,28.70
2018-06-01T11:03:45.929Z,27.00
2018-06-01T11:04:48.181Z,29.60
2018-06-01T11:07:54.542Z,31.60
2018-06-01T11:08:54.436Z,32.90
2018-06-01T11:09:54.421Z,33.00
2018-06-01T11:10:54.416Z,31.70
2018-06-01T11:11:54.375Z,30.30
2018-06-01T11:12:54.440Z,26.40
2018-06-01T11:13:54.487Z,25.20
2018-06-01T11:14:54.580Z,26.00
2018-06-01T11:15:54.432Z,25.50
2018-06-01T11:16:54.554Z,27.00
2018-06-01T11:17:54.462Z,26.20
2018-06-01T11:18:59.498Z,24.20
2018-06-01T11:19:54.488Z,25.80
2018-06-01T11:21:41.978Z,25.30
2018-06-01T11:22:42.034Z,23.50
2018-06-01T11:23:42.256Z,23.30
2018-06-01T11:24:42.056Z,18.80
2018-06-01T11:25:41.961Z,18.40
2018-06-01T11:26:43.062Z,19.40
2018-06-01T11:27:42.034Z,18.00
2018-06-01T11:28:42.139Z,20.60
2018-06-01T11:29:42.033Z,23.30
2018-06-01T11:31:31.433Z,25.00
2018-06-01T11:32:31.133Z,24.70
2018-06-01T11:33:31.081Z,25.30
2018-06-01T11:34:31.684Z,25.50
2018-06-01T11:35:31.072Z,25.40
2018-06-01T11:36:31.222Z,25.60
2018-06-01T11:37:31.113Z,26.40
2018-06-01T11:39:37.033Z,30.40
2018-06-01T11:40:37.126Z,25.40
2018-06-01T11:41:37.032Z,27.40
2018-06-01T11:42:37.050Z,23.30
2018-06-01T11:43:37.053Z,22.00
2018-06-01T11:44:38.188Z,21.20
2018-06-01T11:45:37.354Z,22.40
2018-06-01T11:46:37.075Z,22.50
2018-06-01T11:47:37.028Z,21.40
2018-06-01T11:49:28.831Z,19.80
2018-06-01T11:50:28.916Z,22.80
2018-06-01T11:51:28.965Z,22.00
2018-06-01T11:52:28.947Z,22.40
2018-06-01T11:53:28.910Z,19.40
2018-06-01T11:54:28.894Z,18.30
2018-06-01T11:55:28.924Z,18.00
2018-06-01T11:57:16.412Z,19.30
2018-06-01T11:58:16.116Z,21.40
2018-06-01T12:00:15.439Z,22.00
2018-06-01T12:01:14.125Z,19.50
2018-06-01T12:02:14.054Z,17.20
2018-06-01T12:03:17.121Z,11.90
2018-06-01T12:04:14.023Z,13.60
2018-06-01T12:05:14.110Z,13.00
2018-06-01T12:07:44.215Z,18.40
2018-06-01T12:08:46.372Z,20.20
2018-06-01T12:10:48.388Z,19.70
2018-06-01T12:11:46.846Z,21.30
2018-06-01T12:12:46.680Z,19.00
2018-06-01T12:13:52.318Z,20.10
2018-06-01T12:15:40.835Z,19.90
2018-06-01T12:16:41.971Z,18.80
2018-06-01T12:17:41.786Z,18.70
2018-06-01T12:18:40.918Z,18.90
2018-06-01T12:19:40.794Z,18.70
2018-06-01T12:21:45.379Z,19.70
2018-06-01T12:22:43.247Z,20.40
2018-06-01T12:23:43.431Z,17.50
2018-06-01T12:24:44.964Z,19.90
2018-06-01T12:25:45.356Z,26.70
2018-06-01T12:27:31.558Z,22.90
2018-06-01T12:28:31.289Z,22.10
2018-06-01T12:29:30.533Z,18.40
2018-06-01T12:36:52.470Z,21.30
2018-06-01T12:37:52.520Z,21.00
2018-06-01T12:38:52.357Z,20.60
2018-06-01T12:39:53.367Z,20.80
2018-06-01T12:41:41.809Z,21.60
2018-06-01T12:42:41.777Z,21.90
2018-06-01T12:43:41.928Z,21.30
2018-06-01T12:45:28.885Z,26.10
2018-06-01T12:46:28.862Z,24.60
2018-06-01T12:47:28.784Z,30.40
2018-06-01T12:48:28.910Z,22.30
2018-06-01T12:49:28.844Z,21.50
2018-06-01T12:50:31.269Z,21.10
2018-06-01T12:51:28.869Z,21.80
2018-06-01T12:53:15.729Z,21.70
2018-06-01T12:54:15.704Z,25.40
2018-06-01T12:55:15.703Z,22.00
2018-06-01T12:56:15.735Z,23.40
2018-06-01T12:57:15.788Z,22.30
2018-06-01T12:58:15.732Z,22.10
2018-06-01T12:59:15.728Z,25.50
2018-06-01T13:00:15.730Z,25.20
2018-06-01T13:02:09.945Z,24.10
2018-06-01T13:03:09.924Z,22.30
2018-06-01T13:05:38.743Z,22.20
2018-06-01T13:06:38.769Z,22.70
2018-06-01T13:07:40.894Z,21.80
2018-06-01T13:08:38.820Z,24.10
2018-06-01T13:09:38.856Z,24.20
2018-06-01T13:10:38.814Z,26.40
2018-06-01T13:12:26.072Z,23.70
2018-06-01T13:13:27.104Z,21.90
2018-06-01T13:14:26.020Z,29.20
2018-06-01T13:15:26.130Z,21.90
2018-06-01T13:16:26.079Z,21.70
2018-06-01T13:17:27.119Z,22.40
2018-06-01T13:18:26.063Z,20.60
2018-06-01T13:19:27.132Z,21.60
2018-06-01T13:20:26.148Z,24.30
2018-06-01T13:22:21.847Z,18.10
2018-06-01T13:23:21.880Z,19.00
2018-06-01T13:24:21.838Z,15.90
2018-06-01T13:25:23.951Z,15.90
2018-06-01T13:26:21.828Z,17.70
2018-06-01T13:27:23.939Z,18.30
2018-06-01T13:28:21.862Z,21.60
2018-06-01T13:29:21.865Z,21.90
2018-06-01T13:30:21.894Z,16.50
2018-06-01T13:31:24.380Z,15.30
2018-06-01T13:33:18.694Z,16.40
2018-06-01T13:34:19.656Z,17.40
2018-06-01T13:35:18.588Z,18.00
2018-06-01T13:36:18.651Z,15.80
2018-06-01T13:37:18.607Z,16.60
2018-06-01T13:38:18.719Z,17.00
2018-06-01T13:39:19.701Z,17.00
2018-06-01T13:40:18.681Z,21.50
2018-06-01T13:41:18.783Z,17.00
2018-06-01T13:42:18.704Z,17.70
2018-06-01T13:44:43.784Z,17.20
2018-06-01T13:45:43.594Z,18.60
2018-06-01T13:46:44.963Z,24.50
2018-06-01T13:47:44.599Z,15.50
2018-06-01T13:49:31.479Z,29.20
2018-06-01T13:50:32.795Z,36.50
2018-06-01T13:51:31.617Z,32.80
2018-06-01T13:52:36.503Z,27.80
2018-06-01T13:54:23.804Z,30.90
2018-06-01T13:55:22.722Z,44.50
2018-06-01T13:57:46.316Z,29.50
2018-06-01T13:58:47.629Z,29.00
2018-06-01T13:59:45.013Z,29.00
2018-06-01T14:00:44.950Z,28.40
2018-06-01T14:02:40.274Z,30.90
2018-06-01T14:03:40.369Z,29.60
2018-06-01T14:04:40.570Z,30.60
2018-06-01T14:05:40.286Z,31.30
2018-06-01T14:07:28.752Z,28.50
2018-06-01T14:08:28.914Z,29.60
2018-06-01T14:09:28.871Z,30.00
2018-06-01T14:10:28.673Z,32.60
2018-06-01T14:12:49.128Z,34.30
2018-06-01T14:13:48.217Z,29.90
2018-06-01T14:14:48.267Z,28.80
2018-06-01T14:15:48.880Z,31.30
2018-06-01T14:18:01.393Z,41.50
2018-06-01T14:19:01.355Z,41.00
2018-06-01T14:20:01.612Z,34.20
2018-06-01T14:21:01.438Z,32.10
2018-06-01T14:22:53.315Z,32.60
2018-06-01T14:23:54.509Z,33.00
2018-06-01T14:24:53.414Z,32.20
2018-06-01T14:25:54.547Z,41.70
2018-06-01T14:26:53.496Z,32.10
2018-06-01T14:27:53.435Z,33.20
2018-06-01T14:28:53.396Z,32.70
2018-06-01T14:31:17.302Z,37.90
2018-06-01T14:32:16.892Z,31.60
2018-06-01T14:33:16.836Z,32.00
2018-06-01T14:34:17.070Z,30.80
2018-06-01T14:35:17.435Z,31.30
2018-06-01T14:36:17.104Z,32.30
2018-06-01T14:37:16.928Z,29.90
2018-06-01T14:39:16.397Z,35.90
2018-06-01T14:40:16.724Z,30.70
2018-06-01T14:41:16.492Z,30.30
2018-06-01T14:42:16.934Z,30.40
2018-06-01T14:43:16.427Z,32.50
2018-06-01T14:44:16.458Z,29.10
2018-06-01T14:46:03.550Z,32.30
2018-06-01T14:47:03.627Z,34.00
2018-06-01T14:48:03.515Z,34.80
2018-06-01T14:49:03.744Z,36.00
2018-06-01T14:50:03.634Z,37.30
2018-06-01T14:52:03.973Z,38.80
2018-06-01T14:53:04.010Z,36.70
2018-06-01T14:54:04.006Z,36.20
2018-06-01T14:55:15.568Z,36.50
2018-06-01T14:57:51.107Z,45.70
2018-06-01T14:58:51.134Z,37.10
2018-06-01T14:59:52.192Z,35.50
2018-06-01T15:00:51.176Z,36.80
2018-06-01T15:01:51.286Z,37.70
2018-06-01T15:02:51.123Z,35.80
2018-06-01T15:05:36.162Z,40.00
2018-06-01T15:06:35.169Z,38.90
2018-06-01T15:07:35.171Z,36.40
2018-06-01T15:08:35.267Z,36.90
2018-06-01T15:09:35.268Z,44.90
2018-06-01T15:10:35.215Z,38.20
2018-06-01T15:11:36.253Z,42.70
2018-06-01T15:12:35.219Z,37.70
2018-06-01T15:13:35.287Z,37.80
2018-06-01T15:16:37.721Z,44.10
2018-06-01T15:17:37.811Z,34.80
2018-06-01T15:18:37.755Z,36.10
2018-06-01T15:19:37.767Z,38.10
2018-06-01T15:20:39.885Z,38.80
2018-06-01T15:21:37.822Z,40.90
2018-06-01T15:22:37.924Z,35.50
2018-06-01T15:23:37.823Z,36.10
2018-06-01T15:25:32.352Z,36.70
2018-06-01T15:26:32.309Z,35.80
2018-06-01T15:27:32.321Z,36.00
2018-06-01T15:28:32.342Z,35.10
2018-06-01T15:29:32.302Z,35.30
2018-06-01T15:30:36.943Z,37.10
2018-06-01T15:31:32.318Z,38.00
2018-06-01T15:33:54.658Z,37.20
2018-06-01T15:34:52.627Z,37.80
2018-06-01T15:35:52.643Z,37.00
2018-06-01T15:36:52.655Z,37.30
2018-06-01T15:37:52.718Z,37.80
2018-06-01T15:38:52.625Z,37.90
2018-06-01T15:39:52.686Z,37.70
2018-06-01T15:40:52.699Z,37.40
2018-06-01T15:41:52.781Z,45.30
2018-06-01T15:42:44.438Z,40.40
2018-06-01T15:43:44.363Z,39.80
2018-06-01T15:44:44.408Z,40.10
2018-06-01T15:45:44.443Z,40.60
2018-06-01T15:46:44.433Z,40.60
2018-06-01T15:47:54.975Z,41.50
2018-06-01T15:53:29.083Z,46.60
2018-06-01T15:54:33.788Z,36.20
2018-06-01T15:55:28.975Z,37.40
2018-06-01T15:56:40.582Z,36.30
2018-06-01T15:57:28.995Z,34.80
2018-06-01T15:58:40.149Z,35.60
2018-06-01T15:59:29.014Z,36.70
2018-06-01T16:00:29.142Z,35.00
2018-06-01T16:01:29.040Z,36.30
2018-06-01T16:02:30.177Z,36.20
2018-06-01T16:07:07.129Z,28.80
2018-06-01T16:08:09.346Z,32.30
2018-06-01T16:09:07.128Z,30.60
2018-06-01T16:10:24.088Z,25.60
2018-06-01T16:11:07.195Z,26.30
2018-06-01T16:12:19.149Z,30.20
2018-06-01T16:13:07.229Z,27.80
2018-06-01T16:14:08.251Z,40.10
2018-06-01T16:15:07.230Z,28.60
2018-06-01T16:17:17.842Z,34.20
2018-06-01T16:18:09.107Z,31.90
2018-06-01T16:19:09.160Z,39.00
2018-06-01T16:20:09.183Z,33.20
2018-06-01T16:21:15.794Z,31.10
2018-06-01T16:22:56.380Z,35.40
2018-06-01T16:23:56.331Z,33.40
2018-06-01T16:24:56.301Z,34.40
2018-06-01T16:26:01.253Z,34.60
2018-06-01T16:26:56.323Z,31.90
2018-06-01T16:28:32.078Z,32.90
2018-06-01T16:28:56.384Z,30.40
2018-06-01T16:30:53.538Z,35.50
2018-06-01T16:31:54.609Z,39.30
2018-06-01T16:32:53.471Z,36.30
2018-06-01T16:34:04.244Z,33.10
2018-06-01T16:34:53.502Z,33.90
2018-06-01T16:35:58.136Z,33.70
2018-06-01T16:37:40.736Z,26.30
2018-06-01T16:38:40.551Z,18.40
2018-06-01T16:39:46.244Z,8.10
2018-06-01T16:40:40.578Z,5.80
2018-06-01T16:41:41.588Z,7.50
2018-06-01T16:42:28.831Z,9.80
2018-06-01T16:43:28.791Z,12.30
2018-06-01T16:44:28.789Z,5.80
2018-06-01T16:45:28.816Z,5.40
2018-06-01T16:46:28.873Z,4.40
2018-06-01T16:47:28.819Z,7.90
2018-06-01T16:48:28.843Z,6.70
2018-06-01T16:50:18.248Z,5.20
2018-06-01T16:51:18.246Z,8.70
2018-06-01T16:53:14.428Z,6.30
2018-06-01T16:54:13.407Z,6.40
2018-06-01T16:55:13.500Z,5.40
2018-06-01T16:56:13.527Z,11.40
2018-06-01T16:57:14.683Z,6.50
2018-06-01T16:58:13.436Z,6.00
2018-06-01T16:59:13.545Z,7.90
2018-06-01T17:00:13.450Z,10.40
2018-06-01T17:02:00.799Z,8.70
2018-06-01T17:03:00.802Z,13.90
2018-06-01T17:04:00.883Z,10.60
2018-06-01T17:05:01.853Z,8.10
2018-06-01T17:06:47.866Z,12.50
2018-06-01T17:07:47.789Z,10.70
2018-06-01T17:08:47.823Z,6.90
2018-06-01T17:09:47.835Z,9.00
2018-06-01T17:10:47.927Z,7.50
2018-06-01T17:11:48.074Z,8.40
2018-06-01T17:12:47.864Z,7.80
2018-06-01T17:14:35.678Z,12.20
2018-06-01T17:15:35.382Z,11.50
2018-06-01T17:16:35.408Z,10.20
2018-06-01T17:17:35.441Z,6.10
2018-06-01T17:18:35.386Z,9.00
2018-06-01T17:19:35.395Z,6.80
2018-06-01T17:21:22.666Z,7.30
2018-06-01T17:22:22.495Z,8.20
2018-06-01T17:23:22.485Z,11.40
2018-06-01T17:24:22.650Z,13.90
2018-06-01T17:26:10.086Z,15.30